createdAt,value
2023-05-04T00:27:48.031Z,0.75
2023-05-04T00:32:57.895Z,0.75
2023-05-04T00:38:14.440Z,0.82
2023-05-04T00:43:29.792Z,0.78
2023-05-04T00:48:46.362Z,0.76
2023-05-04T00:54:02.947Z,0.79
2023-05-04T00:59:18.635Z,0.83
2023-05-04T01:04:35.974Z,0.75
2023-05-04T01:09:52.924Z,0.74
2023-05-04T01:15:08.752Z,0.79
2023-05-04T01:20:26.894Z,0.88
2023-05-04T01:25:43.663Z,0.82
2023-05-04T01:31:03.197Z,0.8
2023-05-04T01:36:19.710Z,0.83
2023-05-04T01:41:35.986Z,0.78
2023-05-04T01:46:53.402Z,0.78
2023-05-04T01:52:10.664Z,0.76
2023-05-04T01:57:28.120Z,0.83
2023-05-04T02:02:46.198Z,0.77
2023-05-04T02:08:02.678Z,0.89
2023-05-04T02:13:20.600Z,0.76
2023-05-04T02:18:37.331Z,0.81
2023-05-04T02:23:54.363Z,0.87
2023-05-04T02:29:09.918Z,0.81
2023-05-04T02:34:26.857Z,0.82
2023-05-04T02:39:43.495Z,0.77
2023-05-04T02:44:59.491Z,0.8
2023-05-04T02:50:16.517Z,0.8
2023-05-04T02:55:33.088Z,0.81
2023-05-04T03:00:49.066Z,0.79
2023-05-04T03:06:05.439Z,0.77
2023-05-04T03:11:22.539Z,0.82
2023-05-04T03:16:09.124Z,0.75
2023-05-04T03:21:24.293Z,0.85
2023-05-04T03:26:39.924Z,0.81
2023-05-04T04:04:14.003Z,0.85
2023-05-04T04:09:23.720Z,0.79
2023-05-04T04:14:39.480Z,0.82
2023-05-04T04:19:56.014Z,0.84
2023-05-04T04:25:11.783Z,0.81
2023-05-04T04:30:29.103Z,0.83
2023-05-04T04:35:45.264Z,0.88
2023-05-04T04:41:01.273Z,0.8
2023-05-04T04:46:19.662Z,0.84
2023-05-04T04:51:34.961Z,0.89
2023-05-04T04:56:50.763Z,0.82
2023-05-04T05:02:09.701Z,0.86
2023-05-04T05:07:26.934Z,0.91
2023-05-04T05:12:42.357Z,0.88
2023-05-04T05:17:59.633Z,0.85
2023-05-04T05:23:17.224Z,0.89
2023-05-04T05:28:33.459Z,0.82
2023-05-04T05:34:07.183Z,0.87
2023-05-04T05:39:24.153Z,0.88
2023-05-04T05:44:40.145Z,0.79
2023-05-04T05:49:56.291Z,0.88
2023-05-04T05:55:12.144Z,0.78
2023-05-04T06:00:32.498Z,0.79
2023-05-04T06:05:48.125Z,0.82
2023-05-04T06:11:03.640Z,0.79
2023-05-04T06:16:20.323Z,0.81
2023-05-04T06:21:35.803Z,0.86
2023-05-04T06:26:53.009Z,0.78
2023-05-04T06:32:09.648Z,0.86
2023-05-04T06:37:25.271Z,0.85
2023-05-04T06:42:42.825Z,0.85
2023-05-04T06:47:59.008Z,0.9
2023-05-04T07:30:22.346Z,1.02
2023-05-04T07:40:48.104Z,0.96
2023-05-04T07:46:05.786Z,0.92
2023-05-04T07:51:24.282Z,0.95
2023-05-04T07:56:42.265Z,1.04
2023-05-04T08:01:59.429Z,0.98
2023-05-04T08:07:14.946Z,0.81
2023-05-04T08:12:31.192Z,0.87
2023-05-04T08:17:46.608Z,0.81
2023-05-04T08:23:04.856Z,0.81
2023-05-04T08:28:22.329Z,0.82
2023-05-04T08:33:40.461Z,0.8
2023-05-04T08:38:56.097Z,0.84
2023-05-04T08:44:12.507Z,0.81
2023-05-04T08:49:29.937Z,0.81
2023-05-04T08:54:46.864Z,0.8
2023-05-04T09:00:03.334Z,0.78
2023-05-04T09:05:18.928Z,0.86
2023-05-04T09:10:35.077Z,0.85
2023-05-04T09:15:54.774Z,0.81
2023-05-04T09:21:11.383Z,0.8
2023-05-04T09:26:27.171Z,0.82
2023-05-04T09:31:44.057Z,0.84
2023-05-04T09:36:59.778Z,0.84
2023-05-04T09:42:15.153Z,0.91
2023-05-04T09:47:31.074Z,0.86
2023-05-04T09:52:48.277Z,0.85
2023-05-04T09:58:04.567Z,0.83
2023-05-04T10:03:20.809Z,0.84
2023-05-04T10:08:36.157Z,0.87
2023-05-04T10:13:52.136Z,0.88
2023-05-04T10:19:07.554Z,0.9
2023-05-04T10:24:24.448Z,0.85
2023-05-04T10:29:41.324Z,0.82
2023-05-04T10:34:57.541Z,0.9
2023-05-04T10:40:14.674Z,0.85
2023-05-04T10:45:30.571Z,0.91
2023-05-04T10:50:48.301Z,0.86
2023-05-04T10:56:05.278Z,0.97
2023-05-04T11:01:22.021Z,0.81
2023-05-04T11:06:38.300Z,0.89
2023-05-04T11:11:56.151Z,0.86
2023-05-04T11:17:29.017Z,0.85
2023-05-04T11:22:31.215Z,0.85
2023-05-04T11:27:50.785Z,0.85
2023-05-04T11:33:04.790Z,0.79
2023-05-04T11:38:21.603Z,0.85
2023-05-04T11:43:37.868Z,0.87
2023-05-04T11:48:55.759Z,0.86
2023-05-04T11:54:11.392Z,0.85
2023-05-04T11:59:27.678Z,0.79
2023-05-04T12:04:43.115Z,0.86
2023-05-04T12:09:59.748Z,0.86
2023-05-04T12:15:15.459Z,0.85
2023-05-04T12:20:32.588Z,0.84
2023-05-04T12:36:29.656Z,0.91
2023-05-04T12:41:39.592Z,0.86
2023-05-04T12:47:00.112Z,0.91
2023-05-04T12:52:15.399Z,0.83
2023-05-04T12:57:32.584Z,0.96
2023-05-04T13:02:48.095Z,0.91
2023-05-04T13:08:03.478Z,0.97
2023-05-04T13:13:20.551Z,0.94
2023-05-04T13:18:35.619Z,0.94
2023-05-04T13:23:51.279Z,0.95
2023-05-04T13:29:06.941Z,0.92
2023-05-04T13:34:22.962Z,1
2023-05-04T13:39:39.487Z,0.93
2023-05-04T13:44:57.520Z,0.92
2023-05-04T13:50:13.352Z,0.97
2023-05-04T13:55:31.441Z,0.99
2023-05-04T14:00:50.531Z,0.97
2023-05-04T14:06:07.014Z,1
2023-05-04T14:11:24.478Z,0.98
2023-05-04T14:16:42.677Z,1.04
2023-05-04T14:21:59.308Z,1.04
2023-05-04T14:27:16.477Z,1
2023-05-04T14:32:33.558Z,0.97
2023-05-04T14:37:50.057Z,1.01
2023-05-04T14:43:07.406Z,0.93
2023-05-04T14:48:24.593Z,0.97
2023-05-04T14:53:40.087Z,0.94
2023-05-04T14:58:56.225Z,0.96
2023-05-04T15:04:11.563Z,0.97
2023-05-04T15:09:27.222Z,0.96
2023-05-04T15:14:43.949Z,0.99
2023-05-04T15:20:00.276Z,0.94
2023-05-04T15:25:17.020Z,0.95
2023-05-04T15:30:33.681Z,0.95
2023-05-04T15:35:50.593Z,0.91
2023-05-04T15:41:07.503Z,0.96
2023-05-04T16:28:41.188Z,0.91
2023-05-04T16:33:50.361Z,0.97
2023-05-04T16:39:07.662Z,1.11
2023-05-04T16:44:24.677Z,1
2023-05-04T16:49:41.680Z,0.94
2023-05-04T16:54:58.677Z,0.95
2023-05-04T17:00:14.831Z,0.96
2023-05-04T17:05:31.722Z,0.98
2023-05-04T17:10:46.583Z,0.92
2023-05-04T17:16:02.855Z,0.96
2023-05-04T17:21:18.583Z,0.94
2023-05-04T17:26:35.107Z,0.94
2023-05-04T17:31:52.456Z,0.97
2023-05-04T17:37:09.561Z,0.94
2023-05-04T17:42:25.905Z,0.96
2023-05-04T17:47:44.952Z,0.98
2023-05-04T17:53:00.998Z,0.93
2023-05-04T17:58:17.153Z,0.91
2023-05-04T18:03:34.420Z,0.91
2023-05-04T18:08:50.857Z,0.96
2023-05-04T18:14:08.355Z,0.98
2023-05-04T18:19:25.664Z,0.96
2023-05-04T18:24:42.041Z,0.97
2023-05-04T18:29:58.836Z,0.95
2023-05-04T18:35:16.962Z,0.92
2023-05-04T18:40:35.967Z,0.94
2023-05-04T18:45:53.277Z,0.94
2023-05-04T18:51:11.189Z,0.88
2023-05-04T18:56:27.010Z,0.91
2023-05-04T19:01:43.715Z,0.96
2023-05-04T19:06:59.310Z,0.93
2023-05-04T19:12:16.223Z,0.89
2023-05-04T19:17:32.514Z,0.95
2023-05-04T19:22:49.577Z,0.89
2023-05-04T19:59:57.653Z,0.9
2023-05-04T20:05:07.533Z,0.87
2023-05-04T20:10:24.790Z,0.84
2023-05-04T20:15:40.966Z,0.86
2023-05-04T20:20:58.262Z,0.87
2023-05-04T20:26:14.218Z,0.89
2023-05-04T20:31:31.085Z,0.91
2023-05-04T20:36:48.112Z,0.82
2023-05-04T20:42:12.094Z,0.89
2023-05-04T20:47:28.094Z,0.9
2023-05-04T20:52:47.576Z,0.9
2023-05-04T20:58:04.272Z,0.92
2023-05-04T21:03:21.544Z,0.91
2023-05-04T21:08:36.747Z,0.9
2023-05-04T21:13:53.216Z,0.85
2023-05-04T21:19:09.565Z,0.88
2023-05-04T21:24:25.502Z,0.86
2023-05-04T21:29:42.488Z,0.88
2023-05-04T21:34:58.667Z,0.9
2023-05-04T21:40:14.906Z,0.87
2023-05-04T21:45:33.624Z,0.84
2023-05-04T21:50:49.865Z,0.86
2023-05-04T21:56:06.742Z,0.84
2023-05-04T22:01:22.915Z,0.89
2023-05-04T22:06:38.371Z,0.9
2023-05-04T22:11:54.342Z,0.87
2023-05-04T22:17:11.670Z,0.86
2023-05-04T22:22:27.819Z,0.88
2023-05-04T22:27:46.780Z,0.85
2023-05-04T22:33:03.620Z,0.91
2023-05-04T22:38:19.437Z,0.88
2023-05-04T22:43:35.086Z,0.85
2023-05-04T22:48:50.850Z,0.86
2023-05-04T22:54:06.790Z,0.86
2023-05-04T22:59:22.449Z,0.81
2023-05-04T23:04:39.906Z,0.85
2023-05-04T23:09:57.503Z,0.83
2023-05-04T23:15:13.493Z,0.81
2023-05-04T23:20:30.833Z,0.85
2023-05-04T23:25:48.223Z,0.82
2023-05-04T23:31:05.242Z,0.82
2023-05-04T23:36:25.244Z,0.86
2023-05-04T23:41:42.467Z,0.81
2023-05-04T23:46:58.505Z,0.79
2023-05-04T23:52:15.874Z,0.84
2023-05-04T23:57:32.763Z,0.8
